sensor_id;sensor_type;location;lat;lon;timestamp;P1;durP1;ratioP1;P2;durP2;ratioP2
72404;SDS011;60395;52.020;113.548;2023-12-04T00:01:20;8.98;;;2.72;;
72404;SDS011;60395;52.020;113.548;2023-12-04T00:04:24;8.98;;;1.92;;
72404;SDS011;60395;52.020;113.548;2023-12-04T00:07:28;9.90;;;2.20;;
72404;SDS011;60395;52.020;113.548;2023-12-04T00:10:31;9.75;;;3.03;;
72404;SDS011;60395;52.020;113.548;2023-12-04T00:13:34;9.07;;;3.55;;
72404;SDS011;60395;52.020;113.548;2023-12-04T00:16:38;10.45;;;3.08;;
72404;SDS011;60395;52.020;113.548;2023-12-04T00:19:41;16.67;;;7.03;;
72404;SDS011;60395;52.020;113.548;2023-12-04T00:22:45;12.93;;;6.20;;
72404;SDS011;60395;52.020;113.548;2023-12-04T00:25:48;17.73;;;7.93;;
72404;SDS011;60395;52.020;113.548;2023-12-04T00:28:52;15.95;;;7.30;;
72404;SDS011;60395;52.020;113.548;2023-12-04T00:31:55;11.07;;;4.93;;
72404;SDS011;60395;52.020;113.548;2023-12-04T00:34:59;12.73;;;3.58;;
72404;SDS011;60395;52.020;113.548;2023-12-04T00:38:03;10.70;;;3.60;;
72404;SDS011;60395;52.020;113.548;2023-12-04T00:41:06;6.57;;;2.83;;
72404;SDS011;60395;52.020;113.548;2023-12-04T00:44:10;18.37;;;3.87;;
72404;SDS011;60395;52.020;113.548;2023-12-04T00:47:13;12.77;;;3.58;;
72404;SDS011;60395;52.020;113.548;2023-12-04T00:50:17;16.23;;;3.10;;
72404;SDS011;60395;52.020;113.548;2023-12-04T00:53:21;16.40;;;5.77;;
72404;SDS011;60395;52.020;113.548;2023-12-04T00:56:24;17.83;;;6.73;;
72404;SDS011;60395;52.020;113.548;2023-12-04T00:59:28;22.80;;;7.45;;
72404;SDS011;60395;52.020;113.548;2023-12-04T01:02:32;17.77;;;6.65;;
72404;SDS011;60395;52.020;113.548;2023-12-04T01:05:35;26.80;;;9.60;;
72404;SDS011;60395;52.020;113.548;2023-12-04T01:08:39;10.98;;;3.30;;
72404;SDS011;60395;52.020;113.548;2023-12-04T01:11:42;16.73;;;6.03;;
72404;SDS011;60395;52.020;113.548;2023-12-04T01:14:46;19.80;;;8.15;;
72404;SDS011;60395;52.020;113.548;2023-12-04T01:17:50;20.85;;;7.53;;
72404;SDS011;60395;52.020;113.548;2023-12-04T01:20:53;22.57;;;10.40;;
72404;SDS011;60395;52.020;113.548;2023-12-04T01:23:57;18.85;;;7.10;;
72404;SDS011;60395;52.020;113.548;2023-12-04T01:27:00;20.48;;;9.77;;
72404;SDS011;60395;52.020;113.548;2023-12-04T01:30:05;20.70;;;8.30;;
72404;SDS011;60395;52.020;113.548;2023-12-04T01:33:11;15.32;;;7.03;;
72404;SDS011;60395;52.020;113.548;2023-12-04T01:36:14;18.45;;;7.53;;
72404;SDS011;60395;52.020;113.548;2023-12-04T01:39:18;18.10;;;9.25;;
72404;SDS011;60395;52.020;113.548;2023-12-04T01:42:22;26.27;;;9.10;;
72404;SDS011;60395;52.020;113.548;2023-12-04T01:45:25;22.42;;;8.85;;
72404;SDS011;60395;52.020;113.548;2023-12-04T01:48:28;19.80;;;8.10;;
72404;SDS011;60395;52.020;113.548;2023-12-04T01:54:36;18.73;;;8.48;;
72404;SDS011;60395;52.020;113.548;2023-12-04T01:57:40;20.67;;;7.60;;
72404;SDS011;60395;52.020;113.548;2023-12-04T02:00:44;18.17;;;6.00;;
72404;SDS011;60395;52.020;113.548;2023-12-04T02:03:47;14.48;;;5.68;;
72404;SDS011;60395;52.020;113.548;2023-12-04T02:06:51;19.30;;;7.20;;
72404;SDS011;60395;52.020;113.548;2023-12-04T02:09:55;15.35;;;6.30;;
72404;SDS011;60395;52.020;113.548;2023-12-04T02:13:00;11.50;;;4.53;;
72404;SDS011;60395;52.020;113.548;2023-12-04T02:16:04;9.32;;;4.63;;
72404;SDS011;60395;52.020;113.548;2023-12-04T02:19:11;23.13;;;5.63;;
72404;SDS011;60395;52.020;113.548;2023-12-04T02:22:15;13.65;;;6.05;;
72404;SDS011;60395;52.020;113.548;2023-12-04T02:25:21;25.15;;;9.65;;
72404;SDS011;60395;52.020;113.548;2023-12-04T02:28:37;27.83;;;10.05;;
72404;SDS011;60395;52.020;113.548;2023-12-04T02:31:41;42.05;;;14.13;;
72404;SDS011;60395;52.020;113.548;2023-12-04T02:34:46;40.00;;;13.63;;
72404;SDS011;60395;52.020;113.548;2023-12-04T02:37:51;38.40;;;10.70;;
72404;SDS011;60395;52.020;113.548;2023-12-04T02:40:55;39.72;;;13.70;;
72404;SDS011;60395;52.020;113.548;2023-12-04T02:43:59;40.85;;;13.50;;
72404;SDS011;60395;52.020;113.548;2023-12-04T02:47:02;29.95;;;11.10;;
72404;SDS011;60395;52.020;113.548;2023-12-04T02:50:06;36.23;;;12.60;;
72404;SDS011;60395;52.020;113.548;2023-12-04T02:53:09;28.27;;;9.80;;
72404;SDS011;60395;52.020;113.548;2023-12-04T02:56:13;23.40;;;8.50;;
72404;SDS011;60395;52.020;113.548;2023-12-04T02:59:16;19.90;;;7.30;;
72404;SDS011;60395;52.020;113.548;2023-12-04T03:02:19;18.50;;;7.35;;
72404;SDS011;60395;52.020;113.548;2023-12-04T03:05:23;21.70;;;8.43;;
72404;SDS011;60395;52.020;113.548;2023-12-04T03:08:26;22.00;;;7.28;;
72404;SDS011;60395;52.020;113.548;2023-12-04T03:11:29;13.38;;;5.30;;
72404;SDS011;60395;52.020;113.548;2023-12-04T03:14:32;10.52;;;4.28;;
72404;SDS011;60395;52.020;113.548;2023-12-04T03:17:36;15.27;;;5.30;;
72404;SDS011;60395;52.020;113.548;2023-12-04T03:20:39;7.07;;;3.75;;
72404;SDS011;60395;52.020;113.548;2023-12-04T03:23:43;17.67;;;6.97;;
72404;SDS011;60395;52.020;113.548;2023-12-04T03:26:46;18.02;;;6.97;;
72404;SDS011;60395;52.020;113.548;2023-12-04T03:29:49;16.00;;;7.13;;
72404;SDS011;60395;52.020;113.548;2023-12-04T03:32:52;16.13;;;6.00;;
72404;SDS011;60395;52.020;113.548;2023-12-04T03:35:56;15.82;;;6.35;;
72404;SDS011;60395;52.020;113.548;2023-12-04T03:38:59;17.13;;;7.63;;
72404;SDS011;60395;52.020;113.548;2023-12-04T03:42:02;16.73;;;6.15;;
72404;SDS011;60395;52.020;113.548;2023-12-04T03:45:07;8.10;;;4.20;;
72404;SDS011;60395;52.020;113.548;2023-12-04T03:48:11;23.30;;;9.00;;
72404;SDS011;60395;52.020;113.548;2023-12-04T03:51:15;18.23;;;8.05;;
72404;SDS011;60395;52.020;113.548;2023-12-04T03:54:18;18.90;;;8.02;;
72404;SDS011;60395;52.020;113.548;2023-12-04T03:57:21;11.77;;;4.93;;
72404;SDS011;60395;52.020;113.548;2023-12-04T04:00:24;16.52;;;7.35;;
72404;SDS011;60395;52.020;113.548;2023-12-04T04:03:28;20.67;;;6.23;;
72404;SDS011;60395;52.020;113.548;2023-12-04T04:06:32;11.47;;;5.00;;
72404;SDS011;60395;52.020;113.548;2023-12-04T04:09:35;11.90;;;4.88;;
72404;SDS011;60395;52.020;113.548;2023-12-04T04:12:38;18.55;;;6.47;;
72404;SDS011;60395;52.020;113.548;2023-12-04T04:15:42;29.33;;;7.57;;
72404;SDS011;60395;52.020;113.548;2023-12-04T04:18:45;17.35;;;7.43;;
72404;SDS011;60395;52.020;113.548;2023-12-04T04:21:48;21.58;;;8.70;;
72404;SDS011;60395;52.020;113.548;2023-12-04T04:24:52;26.33;;;9.75;;
72404;SDS011;60395;52.020;113.548;2023-12-04T04:27:56;21.17;;;9.32;;
72404;SDS011;60395;52.020;113.548;2023-12-04T04:30:59;29.35;;;9.95;;
72404;SDS011;60395;52.020;113.548;2023-12-04T04:34:03;21.85;;;7.75;;
72404;SDS011;60395;52.020;113.548;2023-12-04T04:37:06;26.00;;;8.63;;
72404;SDS011;60395;52.020;113.548;2023-12-04T04:40:10;19.77;;;7.50;;
72404;SDS011;60395;52.020;113.548;2023-12-04T04:43:14;14.23;;;6.63;;
72404;SDS011;60395;52.020;113.548;2023-12-04T04:46:17;16.20;;;4.87;;
72404;SDS011;60395;52.020;113.548;2023-12-04T04:49:20;5.13;;;2.92;;
72404;SDS011;60395;52.020;113.548;2023-12-04T04:52:24;4.82;;;2.55;;
72404;SDS011;60395;52.020;113.548;2023-12-04T04:55:29;4.03;;;1.77;;
72404;SDS011;60395;52.020;113.548;2023-12-04T04:58:49;3.25;;;1.67;;
72404;SDS011;60395;52.020;113.548;2023-12-04T05:04:57;2.53;;;1.45;;
72404;SDS011;60395;52.020;113.548;2023-12-04T05:08:01;3.45;;;1.75;;
72404;SDS011;60395;52.020;113.548;2023-12-04T05:11:04;4.38;;;1.90;;
72404;SDS011;60395;52.020;113.548;2023-12-04T05:14:07;5.47;;;1.85;;
72404;SDS011;60395;52.020;113.548;2023-12-04T05:17:11;3.83;;;1.67;;
72404;SDS011;60395;52.020;113.548;2023-12-04T05:20:14;5.63;;;1.67;;
72404;SDS011;60395;52.020;113.548;2023-12-04T05:23:17;3.28;;;1.33;;
72404;SDS011;60395;52.020;113.548;2023-12-04T05:26:21;3.83;;;1.80;;
72404;SDS011;60395;52.020;113.548;2023-12-04T05:29:24;5.57;;;2.00;;
72404;SDS011;60395;52.020;113.548;2023-12-04T05:32:28;2.70;;;1.67;;
72404;SDS011;60395;52.020;113.548;2023-12-04T05:35:31;3.10;;;1.90;;
72404;SDS011;60395;52.020;113.548;2023-12-04T05:38:39;4.35;;;1.95;;
72404;SDS011;60395;52.020;113.548;2023-12-04T05:41:43;4.85;;;2.00;;
72404;SDS011;60395;52.020;113.548;2023-12-04T05:44:46;5.50;;;2.08;;
72404;SDS011;60395;52.020;113.548;2023-12-04T05:47:50;3.35;;;1.50;;
72404;SDS011;60395;52.020;113.548;2023-12-04T05:50:53;2.63;;;1.35;;
72404;SDS011;60395;52.020;113.548;2023-12-04T05:53:56;3.67;;;1.70;;
72404;SDS011;60395;52.020;113.548;2023-12-04T05:57:00;6.70;;;2.35;;
72404;SDS011;60395;52.020;113.548;2023-12-04T06:00:04;5.68;;;2.63;;
72404;SDS011;60395;52.020;113.548;2023-12-04T06:06:11;2.53;;;1.20;;
72404;SDS011;60395;52.020;113.548;2023-12-04T06:09:14;3.22;;;0.98;;
72404;SDS011;60395;52.020;113.548;2023-12-04T06:12:20;2.08;;;1.27;;
72404;SDS011;60395;52.020;113.548;2023-12-04T06:15:23;4.45;;;1.60;;
72404;SDS011;60395;52.020;113.548;2023-12-04T06:18:27;4.20;;;1.55;;
72404;SDS011;60395;52.020;113.548;2023-12-04T06:21:30;2.65;;;1.13;;
72404;SDS011;60395;52.020;113.548;2023-12-04T06:24:34;4.47;;;1.50;;
72404;SDS011;60395;52.020;113.548;2023-12-04T06:27:37;3.58;;;1.42;;
72404;SDS011;60395;52.020;113.548;2023-12-04T06:30:41;3.63;;;1.50;;
72404;SDS011;60395;52.020;113.548;2023-12-04T06:33:45;3.17;;;1.80;;
72404;SDS011;60395;52.020;113.548;2023-12-04T06:36:48;3.40;;;1.57;;
72404;SDS011;60395;52.020;113.548;2023-12-04T06:39:52;3.65;;;1.85;;
72404;SDS011;60395;52.020;113.548;2023-12-04T06:42:56;4.10;;;1.50;;
72404;SDS011;60395;52.020;113.548;2023-12-04T06:46:00;4.18;;;1.80;;
72404;SDS011;60395;52.020;113.548;2023-12-04T06:49:06;9.97;;;2.00;;
72404;SDS011;60395;52.020;113.548;2023-12-04T06:52:14;6.85;;;2.72;;
72404;SDS011;60395;52.020;113.548;2023-12-04T06:55:17;6.93;;;2.97;;
72404;SDS011;60395;52.020;113.548;2023-12-04T06:58:21;6.15;;;2.50;;
72404;SDS011;60395;52.020;113.548;2023-12-04T07:01:24;5.82;;;2.90;;
72404;SDS011;60395;52.020;113.548;2023-12-04T07:04:28;8.32;;;3.55;;
72404;SDS011;60395;52.020;113.548;2023-12-04T07:07:32;6.50;;;3.45;;
72404;SDS011;60395;52.020;113.548;2023-12-04T07:10:35;6.82;;;3.60;;
72404;SDS011;60395;52.020;113.548;2023-12-04T07:13:40;7.22;;;3.35;;
72404;SDS011;60395;52.020;113.548;2023-12-04T07:16:44;6.80;;;2.47;;
72404;SDS011;60395;52.020;113.548;2023-12-04T07:19:47;6.22;;;2.95;;
72404;SDS011;60395;52.020;113.548;2023-12-04T07:22:51;6.13;;;2.63;;
72404;SDS011;60395;52.020;113.548;2023-12-04T07:25:54;4.97;;;2.20;;
72404;SDS011;60395;52.020;113.548;2023-12-04T07:28:57;5.47;;;1.92;;
72404;SDS011;60395;52.020;113.548;2023-12-04T07:32:01;6.75;;;2.13;;
72404;SDS011;60395;52.020;113.548;2023-12-04T07:35:04;4.22;;;2.10;;
72404;SDS011;60395;52.020;113.548;2023-12-04T07:38:08;10.88;;;5.35;;
72404;SDS011;60395;52.020;113.548;2023-12-04T07:41:12;12.70;;;6.22;;
72404;SDS011;60395;52.020;113.548;2023-12-04T07:44:16;18.13;;;6.60;;
72404;SDS011;60395;52.020;113.548;2023-12-04T07:47:19;20.50;;;8.18;;
72404;SDS011;60395;52.020;113.548;2023-12-04T07:50:26;23.83;;;7.57;;
72404;SDS011;60395;52.020;113.548;2023-12-04T07:53:29;19.83;;;7.60;;
72404;SDS011;60395;52.020;113.548;2023-12-04T07:56:32;27.45;;;9.98;;
72404;SDS011;60395;52.020;113.548;2023-12-04T07:59:36;28.25;;;12.32;;
72404;SDS011;60395;52.020;113.548;2023-12-04T08:02:39;30.15;;;12.65;;
72404;SDS011;60395;52.020;113.548;2023-12-04T08:05:44;28.33;;;9.10;;
72404;SDS011;60395;52.020;113.548;2023-12-04T08:08:48;21.98;;;7.78;;
72404;SDS011;60395;52.020;113.548;2023-12-04T08:11:51;20.40;;;8.30;;
72404;SDS011;60395;52.020;113.548;2023-12-04T08:14:58;24.52;;;9.88;;
72404;SDS011;60395;52.020;113.548;2023-12-04T08:18:01;19.35;;;6.65;;
72404;SDS011;60395;52.020;113.548;2023-12-04T08:21:05;20.58;;;8.63;;
72404;SDS011;60395;52.020;113.548;2023-12-04T08:24:09;24.00;;;9.25;;
72404;SDS011;60395;52.020;113.548;2023-12-04T08:27:12;24.23;;;8.60;;
72404;SDS011;60395;52.020;113.548;2023-12-04T08:30:15;23.08;;;7.93;;
72404;SDS011;60395;52.020;113.548;2023-12-04T08:33:19;18.95;;;7.53;;
72404;SDS011;60395;52.020;113.548;2023-12-04T08:36:23;28.33;;;8.70;;
72404;SDS011;60395;52.020;113.548;2023-12-04T08:39:26;33.97;;;13.55;;
72404;SDS011;60395;52.020;113.548;2023-12-04T08:42:30;37.28;;;17.52;;
72404;SDS011;60395;52.020;113.548;2023-12-04T08:45:33;34.97;;;12.55;;
72404;SDS011;60395;52.020;113.548;2023-12-04T08:48:37;29.83;;;12.10;;
72404;SDS011;60395;52.020;113.548;2023-12-04T08:51:40;31.95;;;10.75;;
72404;SDS011;60395;52.020;113.548;2023-12-04T08:54:43;22.65;;;10.35;;
72404;SDS011;60395;52.020;113.548;2023-12-04T08:57:47;25.02;;;8.73;;
72404;SDS011;60395;52.020;113.548;2023-12-04T09:00:50;20.10;;;8.35;;
72404;SDS011;60395;52.020;113.548;2023-12-04T09:03:53;20.80;;;6.95;;
72404;SDS011;60395;52.020;113.548;2023-12-04T09:06:58;13.90;;;5.35;;
72404;SDS011;60395;52.020;113.548;2023-12-04T09:10:22;17.60;;;6.13;;
72404;SDS011;60395;52.020;113.548;2023-12-04T09:13:46;15.60;;;6.05;;
72404;SDS011;60395;52.020;113.548;2023-12-04T09:16:49;14.70;;;5.68;;
72404;SDS011;60395;52.020;113.548;2023-12-04T09:19:52;17.35;;;6.75;;
72404;SDS011;60395;52.020;113.548;2023-12-04T09:22:56;14.13;;;5.43;;
72404;SDS011;60395;52.020;113.548;2023-12-04T09:26:09;9.95;;;5.38;;
72404;SDS011;60395;52.020;113.548;2023-12-04T09:29:14;19.50;;;5.57;;
72404;SDS011;60395;52.020;113.548;2023-12-04T09:32:18;19.50;;;6.88;;
72404;SDS011;60395;52.020;113.548;2023-12-04T09:35:22;15.02;;;6.32;;
72404;SDS011;60395;52.020;113.548;2023-12-04T09:38:25;17.30;;;6.80;;
72404;SDS011;60395;52.020;113.548;2023-12-04T09:41:29;19.90;;;6.82;;
72404;SDS011;60395;52.020;113.548;2023-12-04T09:47:36;11.85;;;5.03;;
72404;SDS011;60395;52.020;113.548;2023-12-04T09:50:46;9.73;;;4.20;;
72404;SDS011;60395;52.020;113.548;2023-12-04T09:53:51;5.15;;;2.33;;
72404;SDS011;60395;52.020;113.548;2023-12-04T09:56:56;4.53;;;2.13;;
72404;SDS011;60395;52.020;113.548;2023-12-04T10:00:02;5.13;;;2.08;;
72404;SDS011;60395;52.020;113.548;2023-12-04T10:03:13;6.40;;;3.00;;
72404;SDS011;60395;52.020;113.548;2023-12-04T10:06:18;4.50;;;2.42;;
72404;SDS011;60395;52.020;113.548;2023-12-04T10:09:23;5.28;;;2.85;;
72404;SDS011;60395;52.020;113.548;2023-12-04T10:12:27;3.63;;;1.98;;
72404;SDS011;60395;52.020;113.548;2023-12-04T10:15:30;2.60;;;1.63;;
72404;SDS011;60395;52.020;113.548;2023-12-04T10:18:34;2.58;;;1.45;;
72404;SDS011;60395;52.020;113.548;2023-12-04T10:21:38;6.18;;;2.20;;
72404;SDS011;60395;52.020;113.548;2023-12-04T10:24:41;4.93;;;1.80;;
72404;SDS011;60395;52.020;113.548;2023-12-04T10:27:45;4.83;;;2.30;;
72404;SDS011;60395;52.020;113.548;2023-12-04T10:30:50;7.32;;;2.08;;
72404;SDS011;60395;52.020;113.548;2023-12-04T10:33:57;6.97;;;2.67;;
72404;SDS011;60395;52.020;113.548;2023-12-04T10:37:00;5.38;;;2.33;;
72404;SDS011;60395;52.020;113.548;2023-12-04T10:40:06;11.68;;;3.45;;
72404;SDS011;60395;52.020;113.548;2023-12-04T10:43:14;18.65;;;5.28;;
72404;SDS011;60395;52.020;113.548;2023-12-04T10:46:21;32.13;;;8.25;;
72404;SDS011;60395;52.020;113.548;2023-12-04T10:49:27;20.08;;;6.90;;
72404;SDS011;60395;52.020;113.548;2023-12-04T10:55:36;13.52;;;4.80;;
72404;SDS011;60395;52.020;113.548;2023-12-04T10:58:40;25.05;;;5.53;;
72404;SDS011;60395;52.020;113.548;2023-12-04T11:01:44;14.13;;;6.85;;
72404;SDS011;60395;52.020;113.548;2023-12-04T11:04:50;13.80;;;5.90;;
72404;SDS011;60395;52.020;113.548;2023-12-04T11:07:57;10.63;;;4.72;;
72404;SDS011;60395;52.020;113.548;2023-12-04T11:11:23;7.00;;;2.10;;
72404;SDS011;60395;52.020;113.548;2023-12-04T11:14:43;37.08;;;15.88;;
72404;SDS011;60395;52.020;113.548;2023-12-04T11:17:50;26.70;;;12.77;;
72404;SDS011;60395;52.020;113.548;2023-12-04T11:20:58;13.93;;;7.40;;
72404;SDS011;60395;52.020;113.548;2023-12-04T11:24:06;75.43;;;31.75;;
72404;SDS011;60395;52.020;113.548;2023-12-04T11:30:15;21.10;;;8.88;;
72404;SDS011;60395;52.020;113.548;2023-12-04T11:33:20;32.78;;;11.93;;
72404;SDS011;60395;52.020;113.548;2023-12-04T11:36:23;23.42;;;7.78;;
72404;SDS011;60395;52.020;113.548;2023-12-04T11:39:27;9.48;;;3.35;;
72404;SDS011;60395;52.020;113.548;2023-12-04T11:42:31;3.30;;;2.10;;
72404;SDS011;60395;52.020;113.548;2023-12-04T11:45:35;4.80;;;2.05;;
72404;SDS011;60395;52.020;113.548;2023-12-04T11:48:43;3.25;;;1.55;;
72404;SDS011;60395;52.020;113.548;2023-12-04T11:51:46;2.55;;;1.23;;
72404;SDS011;60395;52.020;113.548;2023-12-04T11:55:01;3.03;;;1.48;;
72404;SDS011;60395;52.020;113.548;2023-12-04T12:01:16;2.92;;;1.35;;
72404;SDS011;60395;52.020;113.548;2023-12-04T12:04:21;2.60;;;1.27;;
72404;SDS011;60395;52.020;113.548;2023-12-04T12:07:24;3.50;;;2.07;;
72404;SDS011;60395;52.020;113.548;2023-12-04T12:10:28;2.72;;;1.50;;
72404;SDS011;60395;52.020;113.548;2023-12-04T12:16:36;2.47;;;1.40;;
72404;SDS011;60395;52.020;113.548;2023-12-04T12:19:39;2.50;;;1.30;;
72404;SDS011;60395;52.020;113.548;2023-12-04T12:22:42;4.80;;;1.85;;
72404;SDS011;60395;52.020;113.548;2023-12-04T12:25:49;2.08;;;1.17;;
72404;SDS011;60395;52.020;113.548;2023-12-04T12:28:52;8.25;;;3.40;;
72404;SDS011;60395;52.020;113.548;2023-12-04T12:31:56;5.85;;;2.90;;
72404;SDS011;60395;52.020;113.548;2023-12-04T12:34:59;18.40;;;8.90;;
72404;SDS011;60395;52.020;113.548;2023-12-04T12:38:03;12.85;;;6.82;;
72404;SDS011;60395;52.020;113.548;2023-12-04T12:41:07;13.57;;;6.43;;
72404;SDS011;60395;52.020;113.548;2023-12-04T12:44:15;7.65;;;3.70;;
72404;SDS011;60395;52.020;113.548;2023-12-04T12:47:19;5.55;;;2.20;;
72404;SDS011;60395;52.020;113.548;2023-12-04T12:50:22;4.60;;;1.52;;
72404;SDS011;60395;52.020;113.548;2023-12-04T12:53:26;3.95;;;1.88;;
72404;SDS011;60395;52.020;113.548;2023-12-04T12:56:29;6.28;;;2.05;;
72404;SDS011;60395;52.020;113.548;2023-12-04T12:59:33;3.63;;;1.55;;
72404;SDS011;60395;52.020;113.548;2023-12-04T13:02:37;3.40;;;1.17;;
72404;SDS011;60395;52.020;113.548;2023-12-04T13:05:41;2.67;;;1.00;;
72404;SDS011;60395;52.020;113.548;2023-12-04T13:08:44;2.03;;;1.10;;
72404;SDS011;60395;52.020;113.548;2023-12-04T13:11:48;3.22;;;1.42;;
72404;SDS011;60395;52.020;113.548;2023-12-04T13:14:51;1.95;;;1.17;;
72404;SDS011;60395;52.020;113.548;2023-12-04T13:17:54;3.42;;;1.23;;
72404;SDS011;60395;52.020;113.548;2023-12-04T13:20:59;5.20;;;1.80;;
72404;SDS011;60395;52.020;113.548;2023-12-04T13:24:02;2.20;;;1.30;;
72404;SDS011;60395;52.020;113.548;2023-12-04T13:27:09;4.70;;;1.98;;
72404;SDS011;60395;52.020;113.548;2023-12-04T13:30:13;2.92;;;1.60;;
72404;SDS011;60395;52.020;113.548;2023-12-04T13:33:17;3.00;;;1.80;;
72404;SDS011;60395;52.020;113.548;2023-12-04T13:36:20;3.30;;;1.80;;
72404;SDS011;60395;52.020;113.548;2023-12-04T13:39:23;3.30;;;1.63;;
72404;SDS011;60395;52.020;113.548;2023-12-04T13:42:30;4.13;;;1.73;;
72404;SDS011;60395;52.020;113.548;2023-12-04T13:45:51;7.50;;;2.00;;
72404;SDS011;60395;52.020;113.548;2023-12-04T13:48:55;8.63;;;2.10;;
72404;SDS011;60395;52.020;113.548;2023-12-04T13:51:59;6.45;;;2.30;;
72404;SDS011;60395;52.020;113.548;2023-12-04T13:55:03;4.55;;;2.13;;
72404;SDS011;60395;52.020;113.548;2023-12-04T13:58:17;6.15;;;2.28;;
72404;SDS011;60395;52.020;113.548;2023-12-04T14:01:46;11.68;;;2.92;;
72404;SDS011;60395;52.020;113.548;2023-12-04T14:04:52;10.68;;;3.28;;
72404;SDS011;60395;52.020;113.548;2023-12-04T14:07:57;9.15;;;2.80;;
72404;SDS011;60395;52.020;113.548;2023-12-04T14:11:04;8.13;;;3.22;;
72404;SDS011;60395;52.020;113.548;2023-12-04T14:14:07;9.90;;;3.22;;
72404;SDS011;60395;52.020;113.548;2023-12-04T14:17:11;10.80;;;3.15;;
72404;SDS011;60395;52.020;113.548;2023-12-04T14:20:14;13.95;;;4.15;;
72404;SDS011;60395;52.020;113.548;2023-12-04T14:23:20;18.73;;;6.35;;
72404;SDS011;60395;52.020;113.548;2023-12-04T14:26:25;10.43;;;2.50;;
72404;SDS011;60395;52.020;113.548;2023-12-04T14:29:28;13.25;;;3.17;;
72404;SDS011;60395;52.020;113.548;2023-12-04T14:32:31;9.88;;;2.15;;
72404;SDS011;60395;52.020;113.548;2023-12-04T14:35:45;5.07;;;2.38;;
72404;SDS011;60395;52.020;113.548;2023-12-04T14:38:49;9.63;;;2.55;;
72404;SDS011;60395;52.020;113.548;2023-12-04T14:41:53;4.57;;;1.98;;
72404;SDS011;60395;52.020;113.548;2023-12-04T14:44:56;4.97;;;2.30;;
72404;SDS011;60395;52.020;113.548;2023-12-04T14:47:59;5.53;;;2.40;;
72404;SDS011;60395;52.020;113.548;2023-12-04T14:51:03;9.35;;;2.47;;
72404;SDS011;60395;52.020;113.548;2023-12-04T14:54:06;10.83;;;2.53;;
72404;SDS011;60395;52.020;113.548;2023-12-04T14:57:36;4.30;;;2.15;;
72404;SDS011;60395;52.020;113.548;2023-12-04T15:00:42;4.75;;;2.50;;
72404;SDS011;60395;52.020;113.548;2023-12-04T15:03:45;6.40;;;2.50;;
72404;SDS011;60395;52.020;113.548;2023-12-04T15:07:09;3.83;;;1.67;;
72404;SDS011;60395;52.020;113.548;2023-12-04T15:10:30;3.83;;;1.63;;
72404;SDS011;60395;52.020;113.548;2023-12-04T15:14:03;6.07;;;2.63;;
72404;SDS011;60395;52.020;113.548;2023-12-04T15:17:34;7.03;;;2.03;;
72404;SDS011;60395;52.020;113.548;2023-12-04T15:20:50;5.05;;;2.25;;
72404;SDS011;60395;52.020;113.548;2023-12-04T15:23:55;7.95;;;2.40;;
72404;SDS011;60395;52.020;113.548;2023-12-04T15:26:58;7.57;;;2.40;;
72404;SDS011;60395;52.020;113.548;2023-12-04T15:30:02;7.13;;;2.33;;
72404;SDS011;60395;52.020;113.548;2023-12-04T15:33:07;6.03;;;2.20;;
72404;SDS011;60395;52.020;113.548;2023-12-04T15:36:11;4.15;;;1.85;;
72404;SDS011;60395;52.020;113.548;2023-12-04T15:39:14;4.07;;;1.35;;
72404;SDS011;60395;52.020;113.548;2023-12-04T15:42:21;5.13;;;1.90;;
72404;SDS011;60395;52.020;113.548;2023-12-04T15:45:24;4.80;;;2.42;;
72404;SDS011;60395;52.020;113.548;2023-12-04T15:48:27;19.98;;;6.63;;
72404;SDS011;60395;52.020;113.548;2023-12-04T15:51:33;18.00;;;6.57;;
72404;SDS011;60395;52.020;113.548;2023-12-04T15:54:36;9.82;;;4.22;;
72404;SDS011;60395;52.020;113.548;2023-12-04T15:57:40;8.05;;;3.95;;
72404;SDS011;60395;52.020;113.548;2023-12-04T16:00:43;13.50;;;4.00;;
72404;SDS011;60395;52.020;113.548;2023-12-04T16:03:47;19.13;;;4.78;;
72404;SDS011;60395;52.020;113.548;2023-12-04T16:06:50;11.30;;;5.18;;
72404;SDS011;60395;52.020;113.548;2023-12-04T16:09:53;17.75;;;7.82;;
72404;SDS011;60395;52.020;113.548;2023-12-04T16:12:57;16.08;;;6.22;;
72404;SDS011;60395;52.020;113.548;2023-12-04T16:16:00;7.22;;;2.72;;
72404;SDS011;60395;52.020;113.548;2023-12-04T16:19:03;5.55;;;2.42;;
72404;SDS011;60395;52.020;113.548;2023-12-04T16:22:08;4.68;;;2.10;;
72404;SDS011;60395;52.020;113.548;2023-12-04T16:25:11;5.60;;;2.30;;
72404;SDS011;60395;52.020;113.548;2023-12-04T16:28:21;6.75;;;2.55;;
72404;SDS011;60395;52.020;113.548;2023-12-04T16:31:25;10.38;;;2.70;;
72404;SDS011;60395;52.020;113.548;2023-12-04T16:34:28;6.30;;;2.38;;
72404;SDS011;60395;52.020;113.548;2023-12-04T16:37:32;9.07;;;2.78;;
72404;SDS011;60395;52.020;113.548;2023-12-04T16:40:35;7.35;;;2.53;;
72404;SDS011;60395;52.020;113.548;2023-12-04T16:43:39;10.77;;;2.47;;
72404;SDS011;60395;52.020;113.548;2023-12-04T16:46:45;8.40;;;2.17;;
72404;SDS011;60395;52.020;113.548;2023-12-04T16:49:49;4.37;;;2.13;;
72404;SDS011;60395;52.020;113.548;2023-12-04T16:52:52;4.72;;;2.28;;
72404;SDS011;60395;52.020;113.548;2023-12-04T16:55:55;6.45;;;2.33;;
72404;SDS011;60395;52.020;113.548;2023-12-04T16:58:59;4.85;;;2.17;;
72404;SDS011;60395;52.020;113.548;2023-12-04T17:02:02;5.65;;;2.42;;
72404;SDS011;60395;52.020;113.548;2023-12-04T17:05:06;7.53;;;2.13;;
72404;SDS011;60395;52.020;113.548;2023-12-04T17:08:10;2.83;;;1.65;;
72404;SDS011;60395;52.020;113.548;2023-12-04T17:11:13;3.72;;;1.55;;
72404;SDS011;60395;52.020;113.548;2023-12-04T17:14:17;2.43;;;1.47;;
72404;SDS011;60395;52.020;113.548;2023-12-04T17:17:20;5.32;;;1.75;;
72404;SDS011;60395;52.020;113.548;2023-12-04T17:20:23;3.33;;;1.40;;
72404;SDS011;60395;52.020;113.548;2023-12-04T17:23:27;3.13;;;1.58;;
72404;SDS011;60395;52.020;113.548;2023-12-04T17:26:30;6.68;;;1.60;;
72404;SDS011;60395;52.020;113.548;2023-12-04T17:29:34;10.50;;;2.80;;
72404;SDS011;60395;52.020;113.548;2023-12-04T17:32:38;4.15;;;1.83;;
72404;SDS011;60395;52.020;113.548;2023-12-04T17:35:42;3.05;;;1.35;;
72404;SDS011;60395;52.020;113.548;2023-12-04T17:38:45;4.20;;;1.90;;
72404;SDS011;60395;52.020;113.548;2023-12-04T17:41:49;3.92;;;1.77;;
72404;SDS011;60395;52.020;113.548;2023-12-04T17:44:52;8.35;;;1.92;;
72404;SDS011;60395;52.020;113.548;2023-12-04T17:47:56;9.45;;;2.08;;
72404;SDS011;60395;52.020;113.548;2023-12-04T17:50:59;9.40;;;2.55;;
72404;SDS011;60395;52.020;113.548;2023-12-04T17:54:02;9.45;;;2.15;;
72404;SDS011;60395;52.020;113.548;2023-12-04T17:57:06;8.45;;;2.17;;
72404;SDS011;60395;52.020;113.548;2023-12-04T18:00:10;10.32;;;2.42;;
72404;SDS011;60395;52.020;113.548;2023-12-04T18:03:17;4.47;;;1.60;;
72404;SDS011;60395;52.020;113.548;2023-12-04T18:06:27;5.55;;;2.10;;
72404;SDS011;60395;52.020;113.548;2023-12-04T18:09:30;9.18;;;1.80;;
72404;SDS011;60395;52.020;113.548;2023-12-04T18:12:34;7.78;;;2.38;;
72404;SDS011;60395;52.020;113.548;2023-12-04T18:15:38;6.75;;;2.00;;
72404;SDS011;60395;52.020;113.548;2023-12-04T18:18:41;16.55;;;2.25;;